createdAt,value
2023-03-08T00:00:21.044Z,19.48
2023-03-08T00:03:09.043Z,19.35
2023-03-08T00:06:01.550Z,29.05
2023-03-08T00:08:47.871Z,20.45
2023-03-08T00:11:36.212Z,24.88
2023-03-08T00:14:27.209Z,19.90
2023-03-08T00:17:26.306Z,22.30
2023-03-08T00:20:04.729Z,20.42
2023-03-08T00:40:57.400Z,20.42
2023-03-08T00:43:46.189Z,17.85
2023-03-08T00:46:35.708Z,19.90
2023-03-08T00:49:05.035Z,22.02
2023-03-08T00:54:53.558Z,20.95
2023-03-08T00:57:24.034Z,24.02
2023-03-08T01:00:10.833Z,21.23
2023-03-08T01:03:30.592Z,26.42
2023-03-08T01:11:02.521Z,19.55
2023-03-08T01:16:32.118Z,18.63
2023-03-08T01:46:30.740Z,28.60
2023-03-08T01:49:22.160Z,28.90
2023-03-08T01:52:11.774Z,23.40
2023-03-08T01:54:40.865Z,18.52
2023-03-08T01:57:28.410Z,18.05
2023-03-08T02:00:07.441Z,19.83
2023-03-08T02:02:38.049Z,17.73
2023-03-08T02:05:07.984Z,15.85
2023-03-08T02:07:36.302Z,13.63
2023-03-08T02:10:04.284Z,15.90
2023-03-08T02:12:34.436Z,14.98
2023-03-08T02:15:03.238Z,13.65
2023-03-08T02:17:32.622Z,16.48
2023-03-08T02:20:18.040Z,13.45
2023-03-08T02:22:48.312Z,18.02
2023-03-08T02:29:05.941Z,19.60
2023-03-08T02:32:43.707Z,20.45
2023-03-08T02:35:15.632Z,19.25
2023-03-08T02:37:43.174Z,14.60
2023-03-08T02:40:13.544Z,16.80
2023-03-08T02:42:47.290Z,17.02
2023-03-08T02:45:24.179Z,19.13
2023-03-08T02:47:55.239Z,20.10
2023-03-08T02:50:33.025Z,19.85
2023-03-08T02:53:10.412Z,17.38
2023-03-08T02:55:41.579Z,24.67
2023-03-08T02:58:19.980Z,26.52
2023-03-08T03:00:50.090Z,26.58
2023-03-08T03:03:18.479Z,18.35
2023-03-08T03:05:53.764Z,29.08
2023-03-08T03:11:16.614Z,27.60
2023-03-08T03:13:50.384Z,22.05
2023-03-08T03:16:23.574Z,20.20
2023-03-08T03:21:25.289Z,16.35
2023-03-08T03:24:13.596Z,17.75
2023-03-08T03:27:07.533Z,17.75
2023-03-08T03:30:11.223Z,24.30
2023-03-08T03:32:43.109Z,20.13
2023-03-08T03:35:19.425Z,24.08
2023-03-08T03:38:05.113Z,21.83
2023-03-08T03:41:00.039Z,24.98
2023-03-08T03:43:56.033Z,22.50
2023-03-08T03:46:24.464Z,23.38
2023-03-08T03:49:01.876Z,18.00
2023-03-08T03:51:29.431Z,17.98
2023-03-08T03:53:58.668Z,20.00
2023-03-08T03:56:29.304Z,19.25
2023-03-08T03:59:04.835Z,23.27
2023-03-08T04:01:36.210Z,24.05
2023-03-08T04:04:04.252Z,24.02
2023-03-08T04:06:43.753Z,31.20
2023-03-08T04:09:24.647Z,24.45
2023-03-08T04:11:57.931Z,33.20
2023-03-08T04:14:41.043Z,26.00
2023-03-08T04:17:27.060Z,30.40
2023-03-08T04:20:21.666Z,37.13
2023-03-08T04:23:04.147Z,22.63
2023-03-08T04:26:02.056Z,24.85
2023-03-08T04:28:41.548Z,19.63
2023-03-08T04:31:33.766Z,20.13
2023-03-08T04:34:09.785Z,29.50
2023-03-08T04:37:04.931Z,23.10
2023-03-08T04:39:48.558Z,20.20
2023-03-08T04:42:20.629Z,22.17
2023-03-08T04:45:08.420Z,23.75
2023-03-08T04:47:39.005Z,21.27
2023-03-08T04:50:20.436Z,19.60
2023-03-08T04:53:07.311Z,23.65
2023-03-08T04:55:48.229Z,25.33
2023-03-08T04:58:21.274Z,20.48
2023-03-08T05:00:55.177Z,26.58
2023-03-08T05:03:30.103Z,21.95
2023-03-08T05:06:22.017Z,22.35
2023-03-08T05:09:03.742Z,25.52
2023-03-08T05:13:16.813Z,23.92
2023-03-08T05:17:02.118Z,21.98
2023-03-08T05:18:31.350Z,31.65
2023-03-08T05:28:38.286Z,28.45
2023-03-08T05:34:01.915Z,32.03
2023-03-08T05:36:34.033Z,28.60
2023-03-08T05:41:49.797Z,28.13
2023-03-08T05:44:16.940Z,45.45
2023-03-08T05:47:12.935Z,29.20
2023-03-08T05:50:08.267Z,29.63
2023-03-08T05:56:17.578Z,37.13
2023-03-08T05:59:06.708Z,39.25
2023-03-08T06:01:36.152Z,47.15
2023-03-08T06:04:04.262Z,40.47
2023-03-08T06:09:40.955Z,40.58
2023-03-08T06:12:20.091Z,43.90
2023-03-08T06:20:49.482Z,52.60
2023-03-08T06:23:20.331Z,40.58
2023-03-08T06:25:52.537Z,45.65
2023-03-08T06:29:10.752Z,41.60
2023-03-08T06:35:06.676Z,50.95
2023-03-08T06:37:35.035Z,44.80
2023-03-08T06:40:06.826Z,49.72
2023-03-08T06:42:41.267Z,41.10
2023-03-08T06:45:09.770Z,49.17
2023-03-08T06:47:37.243Z,44.72
2023-03-08T06:50:04.668Z,40.65
2023-03-08T06:52:37.825Z,43.72
2023-03-08T06:57:32.761Z,51.85
2023-03-08T07:00:00.065Z,45.33
2023-03-08T07:02:32.359Z,48.75
2023-03-08T07:05:00.041Z,49.10
2023-03-08T07:07:27.416Z,50.65
2023-03-08T07:09:55.361Z,62.05
2023-03-08T07:12:23.052Z,63.38
2023-03-08T07:14:57.032Z,51.05
2023-03-08T07:17:39.199Z,52.08
2023-03-08T07:20:13.372Z,51.97
2023-03-08T07:22:47.364Z,42.55
2023-03-08T07:25:27.727Z,47.67
2023-03-08T07:27:55.378Z,47.70
2023-03-08T07:30:22.746Z,59.15
2023-03-08T07:32:50.053Z,57.08
2023-03-08T07:35:17.690Z,54.97
2023-03-08T07:37:47.104Z,55.22
2023-03-08T07:40:18.362Z,50.78
2023-03-08T07:42:47.902Z,51.40
2023-03-08T07:45:15.636Z,47.13
2023-03-08T07:47:43.212Z,49.28
2023-03-08T07:50:10.817Z,55.47
2023-03-08T07:52:38.130Z,47.40
2023-03-08T07:55:05.601Z,49.20
2023-03-08T07:57:39.604Z,48.80
2023-03-08T08:00:10.442Z,53.78
2023-03-08T08:02:38.242Z,52.92
2023-03-08T08:05:05.788Z,51.20
2023-03-08T08:07:33.442Z,52.50
2023-03-08T08:10:00.897Z,53.53
2023-03-08T08:12:28.256Z,56.92
2023-03-08T08:14:55.607Z,47.42
2023-03-08T08:17:23.163Z,46.45
2023-03-08T08:19:50.561Z,51.33
2023-03-08T08:22:17.878Z,44.95
2023-03-08T08:24:45.189Z,46.83
2023-03-08T08:27:15.711Z,45.33
2023-03-08T08:29:46.310Z,43.53
2023-03-08T08:35:03.587Z,42.17
2023-03-08T08:37:32.481Z,49.63
2023-03-08T08:40:00.250Z,48.35
2023-03-08T08:42:30.144Z,43.25
2023-03-08T08:44:57.514Z,48.85
2023-03-08T08:47:24.854Z,44.50
2023-03-08T08:50:35.485Z,45.78
2023-03-08T09:19:46.675Z,44.15
2023-03-08T09:26:30.847Z,45.85
2023-03-08T09:29:09.038Z,40.38
2023-03-08T09:31:37.798Z,35.67
2023-03-08T09:34:20.184Z,31.77
2023-03-08T09:36:55.337Z,41.35
2023-03-08T09:39:22.596Z,41.35
2023-03-08T09:42:00.121Z,37.97
2023-03-08T09:44:49.564Z,37.97
2023-03-08T09:47:17.286Z,33.28
2023-03-08T09:49:46.364Z,39.22
2023-03-08T09:52:18.233Z,32.13
2023-03-08T09:54:46.328Z,36.75
2023-03-08T09:57:41.629Z,38.20
2023-03-08T10:00:14.198Z,38.60
2023-03-08T10:02:53.516Z,32.78
2023-03-08T10:05:28.166Z,38.67
2023-03-08T10:08:16.575Z,31.60
2023-03-08T10:10:55.911Z,30.13
2023-03-08T10:13:23.347Z,36.75
2023-03-08T10:15:52.609Z,36.25
2023-03-08T10:18:20.085Z,26.60
2023-03-08T10:20:50.282Z,21.13
2023-03-08T10:23:19.448Z,23.83
2023-03-08T10:25:47.618Z,26.55
2023-03-08T10:28:17.140Z,23.90
2023-03-08T10:31:09.787Z,19.55
2023-03-08T10:33:39.817Z,28.23
2023-03-08T10:36:17.941Z,22.35
2023-03-08T10:39:08.766Z,23.10
2023-03-08T10:42:02.550Z,21.35
2023-03-08T10:44:42.297Z,18.00
2023-03-08T10:47:48.057Z,16.75
2023-03-08T10:50:27.831Z,18.50
2023-03-08T10:52:55.293Z,14.75
2023-03-08T10:55:31.532Z,18.02
2023-03-08T10:58:02.965Z,12.15
2023-03-08T11:00:33.388Z,12.60
2023-03-08T11:03:23.825Z,11.48
2023-03-08T11:06:01.211Z,11.73
2023-03-08T11:08:33.493Z,10.23
2023-03-08T11:11:07.215Z,13.67
2023-03-08T11:13:38.130Z,11.98
2023-03-08T11:16:09.564Z,15.30
2023-03-08T11:18:44.889Z,14.80
2023-03-08T11:21:32.597Z,11.73
2023-03-08T11:24:07.101Z,9.02
2023-03-08T11:26:57.781Z,8.70
2023-03-08T11:29:40.332Z,7.30
2023-03-08T11:32:29.899Z,10.67
2023-03-08T11:35:19.927Z,6.35
2023-03-08T11:38:05.969Z,6.80
2023-03-08T11:40:42.603Z,7.25
2023-03-08T11:43:16.649Z,7.22
2023-03-08T11:45:43.816Z,5.68
2023-03-08T11:48:14.056Z,5.90
2023-03-08T11:50:49.796Z,4.07
2023-03-08T11:53:17.043Z,3.72
2023-03-08T11:55:44.192Z,6.30
2023-03-08T11:58:20.437Z,6.35
2023-03-08T12:00:49.102Z,5.88
2023-03-08T12:03:18.220Z,6.65
2023-03-08T12:05:49.237Z,6.15
2023-03-08T12:08:21.200Z,7.28
2023-03-08T12:10:59.336Z,5.05
2023-03-08T12:13:30.005Z,7.78
2023-03-08T12:16:11.902Z,5.05
2023-03-08T12:18:55.354Z,6.55
2023-03-08T12:23:53.421Z,7.60
2023-03-08T12:26:24.590Z,5.50
2023-03-08T12:29:02.213Z,5.40
2023-03-08T12:31:30.698Z,4.82
2023-03-08T12:33:59.266Z,7.50
2023-03-08T12:36:42.833Z,11.20
2023-03-08T12:39:32.050Z,5.75
2023-03-08T12:42:01.058Z,6.45
2023-03-08T12:44:29.629Z,6.88
2023-03-08T12:47:25.605Z,7.07
2023-03-08T12:50:15.406Z,7.45
2023-03-08T12:52:48.485Z,5.70
2023-03-08T12:55:46.762Z,7.85
2023-03-08T13:01:28.793Z,5.60
2023-03-08T13:04:04.387Z,7.55
2023-03-08T13:06:38.340Z,6.00
2023-03-08T13:09:14.325Z,4.93
2023-03-08T13:11:53.289Z,6.07
2023-03-08T13:14:38.192Z,8.05
2023-03-08T13:17:31.805Z,5.82
2023-03-08T13:22:34.898Z,5.55
2023-03-08T13:25:05.736Z,8.40
2023-03-08T13:27:43.684Z,5.72
2023-03-08T13:30:28.979Z,7.47
2023-03-08T13:32:56.462Z,6.63
2023-03-08T13:35:23.920Z,5.65
2023-03-08T13:38:00.164Z,5.60
2023-03-08T13:43:25.051Z,5.80
2023-03-08T13:45:53.998Z,6.53
2023-03-08T13:48:22.438Z,5.63
2023-03-08T13:50:51.165Z,6.22
2023-03-08T13:53:27.416Z,5.20
2023-03-08T13:58:52.436Z,5.97
2023-03-08T14:01:22.645Z,5.25
2023-03-08T14:03:50.807Z,5.78
2023-03-08T14:06:34.017Z,5.75
2023-03-08T14:09:03.719Z,5.25
2023-03-08T14:11:38.509Z,3.17
2023-03-08T14:14:09.578Z,9.65
2023-03-08T14:16:38.384Z,5.80
2023-03-08T14:19:11.897Z,4.65
2023-03-08T14:21:39.460Z,5.10
2023-03-08T14:24:09.964Z,3.15
2023-03-08T14:26:40.707Z,5.07
2023-03-08T14:29:14.298Z,6.60
2023-03-08T14:31:53.184Z,4.32
2023-03-08T14:34:22.681Z,5.10
2023-03-08T14:37:16.490Z,5.45
2023-03-08T14:39:45.139Z,5.25
2023-03-08T14:42:17.879Z,6.35
2023-03-08T14:44:53.611Z,8.38
2023-03-08T14:47:20.953Z,6.03
2023-03-08T14:49:55.969Z,6.82
2023-03-08T14:52:23.507Z,5.97
2023-03-08T14:54:51.067Z,6.88
2023-03-08T14:57:21.307Z,6.90
2023-03-08T14:59:52.492Z,6.10
2023-03-08T15:02:20.125Z,5.03
2023-03-08T15:04:47.602Z,4.82
2023-03-08T15:07:20.186Z,6.32
2023-03-08T15:09:51.798Z,6.65
2023-03-08T15:12:19.069Z,6.63
2023-03-08T15:14:47.579Z,6.00
2023-03-08T15:17:14.952Z,9.23
2023-03-08T15:19:42.343Z,9.73
2023-03-08T15:22:13.769Z,16.75
2023-03-08T15:24:41.125Z,12.95
2023-03-08T15:27:10.449Z,9.60
2023-03-08T15:29:38.533Z,7.32
2023-03-08T15:32:05.929Z,10.27
2023-03-08T15:34:33.304Z,9.45
2023-03-08T15:37:00.474Z,5.18
2023-03-08T15:39:27.717Z,9.13
2023-03-08T15:41:54.915Z,7.55
2023-03-08T15:44:22.130Z,7.88
2023-03-08T15:46:52.220Z,6.70
2023-03-08T15:49:19.944Z,5.95
2023-03-08T15:51:47.141Z,6.93
2023-03-08T15:54:14.326Z,6.72
2023-03-08T15:56:41.516Z,8.32
2023-03-08T15:59:08.886Z,7.75
2023-03-08T16:01:36.203Z,7.15
2023-03-08T16:04:03.504Z,10.95
2023-03-08T16:06:30.700Z,7.10
2023-03-08T16:08:57.943Z,10.35
2023-03-08T16:11:25.502Z,9.65
2023-03-08T16:13:53.544Z,8.80
2023-03-08T16:16:25.944Z,8.82
2023-03-08T16:19:00.005Z,8.65
2023-03-08T16:21:27.329Z,8.45
2023-03-08T16:23:54.566Z,8.70
2023-03-08T16:26:21.991Z,9.15
2023-03-08T16:28:49.290Z,8.52
2023-03-08T16:31:17.135Z,8.15
2023-03-08T16:33:44.727Z,11.48
2023-03-08T16:36:12.672Z,10.93
2023-03-08T16:38:40.175Z,10.52
2023-03-08T16:41:13.080Z,7.78
2023-03-08T16:43:46.775Z,12.15
2023-03-08T16:46:15.581Z,14.60
2023-03-08T16:48:43.164Z,14.02
2023-03-08T16:51:14.368Z,13.15
2023-03-08T16:53:42.042Z,10.68
2023-03-08T16:56:10.922Z,10.82
2023-03-08T16:58:39.624Z,11.73
2023-03-08T17:01:14.940Z,11.68
2023-03-08T17:03:42.670Z,15.77
2023-03-08T17:06:10.918Z,13.00
2023-03-08T17:08:38.794Z,13.45
2023-03-08T17:11:06.488Z,16.23
2023-03-08T17:13:34.323Z,18.48
2023-03-08T17:16:02.504Z,14.27
2023-03-08T17:18:30.065Z,17.25
2023-03-08T17:20:57.919Z,17.13
2023-03-08T17:23:25.232Z,14.63
2023-03-08T17:25:52.597Z,17.67
2023-03-08T17:28:20.009Z,18.73
2023-03-08T17:30:47.268Z,17.15
2023-03-08T17:33:14.772Z,17.95
2023-03-08T17:35:42.908Z,23.20
2023-03-08T17:38:10.811Z,20.95
2023-03-08T17:40:40.578Z,20.38
2023-03-08T17:43:07.884Z,25.10
2023-03-08T17:45:36.467Z,24.90
2023-03-08T17:48:04.096Z,22.65
2023-03-08T17:50:31.983Z,25.70
2023-03-08T17:52:59.625Z,22.42
2023-03-08T17:55:27.540Z,27.33
2023-03-08T17:57:55.246Z,20.83
2023-03-08T18:00:22.880Z,22.77
2023-03-08T18:02:50.502Z,23.63
2023-03-08T18:05:21.267Z,22.17
2023-03-08T18:07:50.266Z,24.17
2023-03-08T18:10:17.922Z,25.33
2023-03-08T18:12:45.413Z,26.23
2023-03-08T18:15:14.591Z,23.52
2023-03-08T18:17:42.171Z,26.23
2023-03-08T18:20:11.179Z,24.33
2023-03-08T18:22:40.756Z,24.70
2023-03-08T18:25:08.136Z,26.77
2023-03-08T18:27:35.488Z,24.08
2023-03-08T18:30:02.841Z,25.52
2023-03-08T18:32:30.513Z,30.85
2023-03-08T18:34:58.076Z,24.98
2023-03-08T18:37:25.976Z,32.67
2023-03-08T18:39:54.466Z,26.45
2023-03-08T18:42:21.770Z,30.55
2023-03-08T18:44:49.369Z,27.67
2023-03-08T18:47:16.820Z,28.65
2023-03-08T18:49:44.224Z,27.95
2023-03-08T18:52:12.099Z,31.83
2023-03-08T18:54:39.600Z,31.23
2023-03-08T18:57:07.060Z,24.17
2023-03-08T18:59:34.822Z,39.03
2023-03-08T19:02:02.238Z,33.42
2023-03-08T19:04:29.562Z,32.35
2023-03-08T19:06:56.814Z,36.78
2023-03-08T19:09:24.390Z,31.73
2023-03-08T19:11:51.725Z,37.28
2023-03-08T19:14:19.196Z,35.40
2023-03-08T19:16:46.572Z,36.42
2023-03-08T19:19:15.244Z,38.40
2023-03-08T19:21:44.038Z,32.67
2023-03-08T19:24:15.311Z,38.30
2023-03-08T19:26:46.945Z,35.47
2023-03-08T19:29:15.446Z,35.20
2023-03-08T19:31:42.856Z,33.15
2023-03-08T19:34:10.721Z,33.28
2023-03-08T19:36:38.470Z,34.42
2023-03-08T19:39:07.322Z,33.40
2023-03-08T19:41:34.817Z,36.72
2023-03-08T19:44:07.059Z,34.67
2023-03-08T19:46:39.338Z,31.67
2023-03-08T19:49:07.780Z,37.10
2023-03-08T19:51:36.551Z,33.70
2023-03-08T19:54:04.360Z,26.50
2023-03-08T19:56:31.634Z,33.80
2023-03-08T19:58:59.488Z,32.10
2023-03-08T20:01:27.353Z,33.90
2023-03-08T20:03:54.743Z,31.55
2023-03-08T20:06:26.402Z,33.33
2023-03-08T20:08:53.640Z,30.08
2023-03-08T20:11:21.452Z,35.97
2023-03-08T20:13:48.688Z,33.90
2023-03-08T20:16:16.281Z,34.10
2023-03-08T20:18:43.815Z,31.52
2023-03-08T20:21:11.187Z,34.45
2023-03-08T20:23:39.087Z,34.40
2023-03-08T20:26:09.595Z,38.17
2023-03-08T20:28:37.700Z,31.23
2023-03-08T20:31:11.734Z,35.08
2023-03-08T20:33:39.337Z,37.65
2023-03-08T20:36:06.894Z,35.88
2023-03-08T20:38:34.487Z,33.25
2023-03-08T20:41:03.274Z,34.38
2023-03-08T20:43:33.186Z,40.55
2023-03-08T20:46:05.994Z,37.80
2023-03-08T20:48:34.656Z,38.97
2023-03-08T20:51:02.732Z,40.72
2023-03-08T20:53:30.650Z,41.58
2023-03-08T20:55:58.297Z,38.08
2023-03-08T20:58:25.775Z,40.95
2023-03-08T21:00:53.445Z,37.97
2023-03-08T21:03:21.199Z,42.33
2023-03-08T21:05:48.686Z,42.40
2023-03-08T21:08:16.001Z,35.15
2023-03-08T21:10:43.578Z,34.15
2023-03-08T21:13:14.127Z,33.25
2023-03-08T21:15:41.637Z,35.85
2023-03-08T21:18:09.094Z,37.50
2023-03-08T21:20:37.600Z,32.92
2023-03-08T21:23:05.076Z,36.10
2023-03-08T21:25:35.935Z,39.13
2023-03-08T21:28:05.692Z,36.60
2023-03-08T21:30:33.251Z,38.38
2023-03-08T21:33:00.669Z,39.33
2023-03-08T21:35:28.128Z,35.80
2023-03-08T21:37:55.378Z,36.92
2023-03-08T21:40:22.929Z,40.45
2023-03-08T21:42:50.280Z,38.67
2023-03-08T21:45:17.671Z,36.30
2023-03-08T21:47:45.135Z,40.55
2023-03-08T21:50:15.803Z,35.17
2023-03-08T21:52:43.051Z,38.35
2023-03-08T21:55:10.604Z,37.67
2023-03-08T21:57:38.269Z,40.15
2023-03-08T22:00:06.436Z,38.28
2023-03-08T22:02:34.313Z,41.70
2023-03-08T22:05:02.506Z,38.10
2023-03-08T22:07:29.862Z,31.35
2023-03-08T22:09:57.180Z,35.13
2023-03-08T22:12:24.542Z,38.35
2023-03-08T22:14:51.910Z,32.63
2023-03-08T22:17:19.432Z,37.40
2023-03-08T22:19:46.930Z,37.05
2023-03-08T22:22:14.509Z,37.42
2023-03-08T22:24:41.842Z,38.78
2023-03-08T22:27:10.793Z,37.17
2023-03-08T22:29:38.426Z,34.25
2023-03-08T22:32:06.463Z,31.92
2023-03-08T22:34:34.401Z,39.72
2023-03-08T22:37:01.732Z,34.67
2023-03-08T22:39:29.136Z,41.10
2023-03-08T22:41:56.581Z,34.10
2023-03-08T22:44:24.049Z,38.25
2023-03-08T22:46:51.318Z,36.00
2023-03-08T22:49:18.648Z,40.85
2023-03-08T22:51:45.905Z,38.33
2023-03-08T22:54:15.651Z,37.65
2023-03-08T22:56:42.975Z,38.10
2023-03-08T22:59:10.617Z,38.92
2023-03-08T23:01:37.994Z,41.42
2023-03-08T23:04:06.335Z,38.72
2023-03-08T23:06:34.100Z,38.28
2023-03-08T23:09:03.333Z,39.13
2023-03-08T23:11:30.763Z,44.05
2023-03-08T23:13:58.245Z,38.85
2023-03-08T23:16:26.344Z,46.25
2023-03-08T23:18:54.168Z,45.42
2023-03-08T23:21:23.103Z,41.78
2023-03-08T23:23:50.430Z,46.00
2023-03-08T23:26:21.013Z,44.28
2023-03-08T23:28:48.921Z,46.22
2023-03-08T23:31:18.035Z,40.97
2023-03-08T23:33:45.396Z,47.33
2023-03-08T23:36:13.639Z,50.42
2023-03-08T23:38:40.910Z,39.97
2023-03-08T23:41:09.023Z,46.40
2023-03-08T23:43:36.874Z,46.45
2023-03-08T23:46:08.182Z,44.58
2023-03-08T23:48:35.830Z,43.33
2023-03-08T23:51:06.909Z,45.22
2023-03-08T23:53:34.587Z,41.60
2023-03-08T23:56:01.947Z,44.85
2023-03-08T23:58:29.267Z,44.72
